createdAt,value
2023-05-29T00:00:00.517Z,1.1
2023-05-29T00:01:00.492Z,1.1
2023-05-29T00:02:00.495Z,1.1
2023-05-29T00:03:00.618Z,1.1
2023-05-29T00:04:00.668Z,1.1
2023-05-29T00:05:00.691Z,1.1
2023-05-29T00:06:00.499Z,1.1
2023-05-29T00:07:00.502Z,1.1
2023-05-29T00:08:00.512Z,1.1
2023-05-29T00:09:00.511Z,1.1
2023-05-29T00:10:00.522Z,1.1
2023-05-29T00:11:00.515Z,1.1
2023-05-29T00:12:00.500Z,1.1
2023-05-29T00:13:00.501Z,1.1
2023-05-29T00:14:00.529Z,1.1
2023-05-29T00:15:00.499Z,1.1
2023-05-29T00:16:00.552Z,1.1
2023-05-29T00:17:00.540Z,1.1
2023-05-29T00:18:00.549Z,1.1
2023-05-29T00:19:00.530Z,1.1
2023-05-29T00:20:00.586Z,1.1
2023-05-29T00:21:00.518Z,1.1
2023-05-29T00:22:00.536Z,1.1
2023-05-29T00:23:00.516Z,1.1
2023-05-29T00:24:00.512Z,1.1
2023-05-29T00:25:00.549Z,1.1
2023-05-29T00:26:00.515Z,1.1
2023-05-29T00:27:00.529Z,1.1
2023-05-29T00:28:00.540Z,1.1
2023-05-29T00:29:00.528Z,1.1
2023-05-29T00:30:00.527Z,1.1
2023-05-29T00:31:00.525Z,1.1
2023-05-29T00:32:00.712Z,1.1
2023-05-29T00:33:00.575Z,1.1
2023-05-29T00:34:00.526Z,1.1
2023-05-29T00:35:00.534Z,1.1
2023-05-29T00:36:00.527Z,1.1
2023-05-29T00:37:00.567Z,1.1
2023-05-29T00:38:00.544Z,1.1
2023-05-29T00:39:00.559Z,1.1
2023-05-29T00:40:00.560Z,1.1
2023-05-29T00:41:00.537Z,1.1
2023-05-29T00:42:00.556Z,1.1
2023-05-29T00:43:00.535Z,1.1
2023-05-29T00:44:00.535Z,1.1
2023-05-29T00:45:00.543Z,1.1
2023-05-29T00:46:00.579Z,1.1
2023-05-29T00:47:00.549Z,1.1
2023-05-29T00:48:00.550Z,1.1
2023-05-29T00:49:00.559Z,1.1
2023-05-29T00:50:00.555Z,1.1
2023-05-29T00:51:00.546Z,1.1
2023-05-29T00:52:00.538Z,1.1
2023-05-29T00:53:00.554Z,1.1
2023-05-29T00:54:00.546Z,1.1
2023-05-29T00:55:00.562Z,1.1
2023-05-29T00:56:00.553Z,1.1
2023-05-29T00:57:00.585Z,1.1
2023-05-29T00:58:00.548Z,1.1
2023-05-29T00:59:00.586Z,1.1
2023-05-29T01:00:00.579Z,1.1
2023-05-29T01:01:00.588Z,1.1
2023-05-29T01:02:00.589Z,1.1
2023-05-29T01:03:00.625Z,1.1
2023-05-29T01:04:00.574Z,1.1
2023-05-29T01:05:00.569Z,1.1
2023-05-29T01:06:00.576Z,1.1
2023-05-29T01:07:00.559Z,1.1
2023-05-29T01:08:00.571Z,1.1
2023-05-29T01:09:00.559Z,1.1
2023-05-29T01:10:00.582Z,1.1
2023-05-29T01:11:00.559Z,1.1
2023-05-29T01:12:00.563Z,1.1
2023-05-29T01:13:00.566Z,1.1
2023-05-29T01:14:00.565Z,1.1
2023-05-29T01:15:00.583Z,1.1
2023-05-29T01:16:00.620Z,1.1
2023-05-29T01:17:00.576Z,1.1
2023-05-29T01:18:00.648Z,1.1
2023-05-29T01:19:00.608Z,1.1
2023-05-29T01:20:00.641Z,1.1
2023-05-29T01:21:00.618Z,1.1
2023-05-29T01:22:00.575Z,1.1
2023-05-29T01:23:00.579Z,1.1
2023-05-29T01:24:00.594Z,1.1
2023-05-29T01:25:00.595Z,1.1
2023-05-29T01:26:00.583Z,1.1
2023-05-29T01:27:00.600Z,1.1
2023-05-29T01:28:00.605Z,1.1
2023-05-29T01:29:00.584Z,1.1
2023-05-29T01:30:00.594Z,1.1
2023-05-29T01:31:00.608Z,1.1
2023-05-29T01:32:00.593Z,1.1
2023-05-29T01:33:00.685Z,1.1
2023-05-29T01:34:00.612Z,1.1
2023-05-29T01:35:00.585Z,1.1
2023-05-29T01:36:00.588Z,1.1
2023-05-29T01:37:00.601Z,1.1
2023-05-29T01:38:00.594Z,1.1
2023-05-29T01:39:00.613Z,1.1
2023-05-29T01:40:00.631Z,1.1
2023-05-29T01:41:00.600Z,1.1
2023-05-29T01:42:00.611Z,1.1
2023-05-29T01:43:00.602Z,1.1
2023-05-29T01:44:00.608Z,1.1
2023-05-29T01:45:00.628Z,1.1
2023-05-29T01:46:00.623Z,1.1
2023-05-29T01:47:00.733Z,1.1
2023-05-29T01:48:00.710Z,1.1
2023-05-29T01:49:00.625Z,1.1
2023-05-29T01:50:00.641Z,1.1
2023-05-29T01:51:00.551Z,1.1
2023-05-29T01:52:00.525Z,1.1
2023-05-29T01:53:00.509Z,1.1
2023-05-29T01:54:00.465Z,1.1
2023-05-29T01:55:00.437Z,1.1
2023-05-29T01:56:00.406Z,1.1
2023-05-29T01:57:00.385Z,1.1
2023-05-29T01:58:00.346Z,1.1
2023-05-29T01:59:00.317Z,1.1
2023-05-29T02:00:00.322Z,1.1
2023-05-29T02:01:02.096Z,1.1
2023-05-29T02:02:02.082Z,1.1
2023-05-29T02:03:02.120Z,1.1
2023-05-29T02:04:02.140Z,1.1
2023-05-29T02:05:02.102Z,1.1
2023-05-29T02:06:02.091Z,1.1
2023-05-29T02:07:02.086Z,1.1
2023-05-29T02:08:02.106Z,1.1
2023-05-29T02:09:02.136Z,1.1
2023-05-29T02:10:02.154Z,1.1
2023-05-29T02:11:02.093Z,1.1
2023-05-29T02:12:02.093Z,1.1
2023-05-29T02:13:02.126Z,1.1
2023-05-29T02:14:02.116Z,1.1
2023-05-29T02:15:02.121Z,1.1
2023-05-29T02:16:02.108Z,1.1
2023-05-29T02:17:02.197Z,1.1
2023-05-29T02:18:02.203Z,1.1
2023-05-29T02:19:02.119Z,1.1
2023-05-29T02:20:02.148Z,1.1
2023-05-29T02:21:02.100Z,1.1
2023-05-29T02:22:02.105Z,1.1
2023-05-29T02:23:02.106Z,1.1
2023-05-29T02:24:02.108Z,1.1
2023-05-29T02:25:02.126Z,1.1
2023-05-29T02:26:02.108Z,1.1
2023-05-29T02:27:02.138Z,1.1
2023-05-29T02:28:02.130Z,1.1
2023-05-29T02:29:02.105Z,1.1
2023-05-29T02:30:02.179Z,1.1
2023-05-29T02:31:02.129Z,1.1
2023-05-29T02:32:02.213Z,1.1
2023-05-29T02:33:02.192Z,1.1
2023-05-29T02:34:02.127Z,1.1
2023-05-29T02:35:02.183Z,1.1
2023-05-29T02:36:02.131Z,1.1
2023-05-29T02:37:02.120Z,1.1
2023-05-29T02:38:02.147Z,1.1
2023-05-29T02:39:02.130Z,1.1
2023-05-29T02:40:02.155Z,1.1
2023-05-29T02:41:02.134Z,1.1
2023-05-29T02:42:02.134Z,1.1
2023-05-29T02:43:02.127Z,1.1
2023-05-29T02:44:02.136Z,1.1
2023-05-29T02:45:02.200Z,1.1
2023-05-29T02:46:02.183Z,1.1
2023-05-29T02:47:02.129Z,1.1
2023-05-29T02:48:02.192Z,1.1
2023-05-29T02:49:02.140Z,1.1
2023-05-29T02:50:02.168Z,1.1
2023-05-29T02:51:02.128Z,1.1
2023-05-29T02:52:02.133Z,1.1
2023-05-29T02:53:02.135Z,1.1
2023-05-29T02:54:02.144Z,1.1
2023-05-29T02:55:02.149Z,1.1
2023-05-29T02:56:02.134Z,1.1
2023-05-29T02:57:02.149Z,1.1
2023-05-29T02:58:02.170Z,1.1
2023-05-29T02:59:02.135Z,1.1
2023-05-29T03:00:02.240Z,1.1
2023-05-29T03:01:02.188Z,1.1
2023-05-29T03:02:02.201Z,1.1
2023-05-29T03:03:02.331Z,1.2
2023-05-29T03:04:02.271Z,1.4
2023-05-29T03:05:02.158Z,1.6
2023-05-29T03:06:02.155Z,1.9
2023-05-29T03:07:02.146Z,2.1
2023-05-29T03:08:02.154Z,2.5
2023-05-29T03:09:02.179Z,2.8
2023-05-29T03:10:02.178Z,3.3
2023-05-29T03:11:02.150Z,3.7
2023-05-29T03:12:02.176Z,4.3
2023-05-29T03:13:02.181Z,5
2023-05-29T03:14:02.167Z,5.7
2023-05-29T03:15:02.173Z,6.6
2023-05-29T03:16:02.204Z,7.5
2023-05-29T03:17:02.154Z,8.6
2023-05-29T03:18:02.217Z,9.8
2023-05-29T03:19:02.185Z,11.2
2023-05-29T03:20:02.286Z,12.6
2023-05-29T03:21:02.217Z,14.2
2023-05-29T03:22:02.195Z,16
2023-05-29T03:23:02.169Z,18.1
2023-05-29T03:24:02.167Z,20.1
2023-05-29T03:25:02.185Z,22.4
2023-05-29T03:26:02.177Z,25
2023-05-29T03:27:02.178Z,27.8
2023-05-29T03:28:02.198Z,30.6
2023-05-29T03:29:02.178Z,33.6
2023-05-29T03:30:02.217Z,37
2023-05-29T03:31:02.192Z,40.3
2023-05-29T03:32:02.204Z,43.8
2023-05-29T03:33:02.205Z,47.6
2023-05-29T03:34:02.179Z,51.7
2023-05-29T03:35:02.229Z,56.3
2023-05-29T03:36:02.206Z,61.2
2023-05-29T03:37:02.175Z,65.7
2023-05-29T03:38:02.176Z,70.6
2023-05-29T03:39:02.213Z,76.8
2023-05-29T03:40:02.211Z,82.5
2023-05-29T03:41:02.250Z,87.6
2023-05-29T03:42:02.204Z,95.2
2023-05-29T03:43:02.190Z,101.1
2023-05-29T03:44:02.188Z,107.3
2023-05-29T03:45:02.221Z,113.9
2023-05-29T03:46:02.197Z,121
2023-05-29T03:47:02.227Z,128.4
2023-05-29T03:48:02.268Z,136.3
2023-05-29T03:49:02.196Z,143
2023-05-29T03:50:02.239Z,151.8
2023-05-29T03:51:02.216Z,159.3
2023-05-29T03:52:02.226Z,167.1
2023-05-29T03:53:02.206Z,177.3
2023-05-29T03:54:02.208Z,186
2023-05-29T03:55:02.220Z,195.2
2023-05-29T03:56:02.207Z,204.7
2023-05-29T03:57:02.200Z,212.2
2023-05-29T03:58:02.223Z,222.6
2023-05-29T03:59:02.203Z,230.7
2023-05-29T04:00:02.323Z,242
2023-05-29T04:01:02.232Z,250.9
2023-05-29T04:02:02.298Z,260
2023-05-29T04:03:02.471Z,269.5
2023-05-29T04:04:02.290Z,279.4
2023-05-29T04:05:02.310Z,289.6
2023-05-29T04:06:02.208Z,300.2
2023-05-29T04:07:02.223Z,307.4
2023-05-29T04:08:14.745Z,318.7
2023-05-29T04:09:02.209Z,330.3
2023-05-29T04:10:02.268Z,338.3
2023-05-29T04:11:02.229Z,350.6
2023-05-29T04:12:02.233Z,359.1
2023-05-29T04:13:02.217Z,367.8
2023-05-29T04:14:02.249Z,381.3
2023-05-29T04:15:02.216Z,385.9
2023-05-29T04:16:02.219Z,399.9
2023-05-29T04:17:02.302Z,404.8
2023-05-29T04:18:02.322Z,414.5
2023-05-29T04:19:02.250Z,424.6
2023-05-29T04:20:02.288Z,434.9
2023-05-29T04:21:02.226Z,445.4
2023-05-29T04:22:02.227Z,456.2
2023-05-29T04:23:02.240Z,461.7
2023-05-29T04:24:02.256Z,472.9
2023-05-29T04:25:02.246Z,478.5
2023-05-29T04:26:02.275Z,490.1
2023-05-29T04:27:02.250Z,496
2023-05-29T04:28:02.234Z,508
2023-05-29T04:29:02.234Z,514.1
2023-05-29T04:30:02.291Z,526.6
2023-05-29T04:31:02.287Z,532.9
2023-05-29T04:32:02.256Z,539.3
2023-05-29T04:33:02.322Z,552.4
2023-05-29T04:34:02.240Z,559
2023-05-29T04:35:02.252Z,572.5
2023-05-29T04:36:02.306Z,579.4
2023-05-29T04:37:02.237Z,593.4
2023-05-29T04:38:02.236Z,600.6
2023-05-29T04:39:02.243Z,607.8
2023-05-29T04:40:02.249Z,615.1
2023-05-29T04:41:02.247Z,630
2023-05-29T04:42:02.243Z,637.6
2023-05-29T04:43:02.250Z,645.3
2023-05-29T04:44:02.252Z,653
2023-05-29T04:45:02.257Z,660.9
2023-05-29T04:46:02.285Z,668.8
2023-05-29T04:47:02.245Z,676.9
2023-05-29T04:48:02.256Z,685.1
2023-05-29T04:49:02.246Z,693.3
2023-05-29T04:50:02.262Z,701.6
2023-05-29T04:51:02.263Z,710.1
2023-05-29T04:52:02.304Z,718.6
2023-05-29T04:53:02.256Z,727.2
2023-05-29T04:54:02.252Z,736
2023-05-29T04:55:02.266Z,753.8
2023-05-29T04:56:02.253Z,753.8
2023-05-29T04:57:02.257Z,762.9
2023-05-29T04:58:02.257Z,772.1
2023-05-29T04:59:02.259Z,772.1
2023-05-29T05:00:02.294Z,790.8
2023-05-29T05:01:02.268Z,790.8
2023-05-29T05:02:02.302Z,790.8
2023-05-29T05:03:02.302Z,800.3
2023-05-29T05:04:02.320Z,819.6
2023-05-29T05:05:02.281Z,819.6
2023-05-29T05:06:02.274Z,829.5
2023-05-29T05:07:02.268Z,839.5
2023-05-29T05:08:02.279Z,849.6
2023-05-29T05:09:02.276Z,849.6
2023-05-29T05:10:02.275Z,859.8
2023-05-29T05:11:02.276Z,870.2
2023-05-29T05:12:02.273Z,880.6
2023-05-29T05:13:02.283Z,891.2
2023-05-29T05:14:02.275Z,891.2
2023-05-29T05:15:02.288Z,901.9
2023-05-29T05:16:02.483Z,912.8
2023-05-29T05:17:02.280Z,923.7
2023-05-29T05:18:02.388Z,934.9
2023-05-29T05:19:02.327Z,934.9
2023-05-29T05:20:02.365Z,946.1
2023-05-29T05:21:02.318Z,957.5
2023-05-29T05:22:02.302Z,957.5
2023-05-29T05:23:02.288Z,969
2023-05-29T05:24:02.293Z,980.7
2023-05-29T05:25:02.322Z,980.7
2023-05-29T05:26:02.304Z,992.5
2023-05-29T05:27:02.290Z,1004.4
2023-05-29T05:28:02.290Z,1004.4
2023-05-29T05:29:02.305Z,1016.5
2023-05-29T05:30:02.295Z,1028.7
2023-05-29T05:31:02.297Z,1028.7
2023-05-29T05:32:02.408Z,1041.1
2023-05-29T05:33:02.487Z,1053.6
2023-05-29T05:34:02.298Z,1053.6
2023-05-29T05:35:02.302Z,1066.3
2023-05-29T05:36:02.306Z,1079.1
2023-05-29T05:37:02.320Z,1079.1
2023-05-29T05:38:02.325Z,1105.3
2023-05-29T05:39:02.314Z,1105.3
2023-05-29T05:40:02.387Z,1118.6
2023-05-29T05:41:02.313Z,1132
2023-05-29T05:42:02.318Z,1132
2023-05-29T05:43:02.313Z,1145.6
2023-05-29T05:44:02.311Z,1159.4
2023-05-29T05:45:02.334Z,1159.4
2023-05-29T05:46:02.387Z,1159.4
2023-05-29T05:47:02.311Z,1173.3
2023-05-29T05:48:02.451Z,1173.3
2023-05-29T05:49:02.315Z,1187.5
2023-05-29T05:50:02.345Z,1187.5
2023-05-29T05:51:02.333Z,1201.7
2023-05-29T05:52:02.357Z,1216.2
2023-05-29T05:53:02.328Z,1216.2
2023-05-29T05:54:02.325Z,1230.8
2023-05-29T05:55:02.340Z,1245.7
2023-05-29T05:56:02.329Z,1245.7
2023-05-29T05:57:02.325Z,1245.7
2023-05-29T05:58:02.335Z,1260.7
2023-05-29T05:59:02.344Z,1260.7
2023-05-29T06:00:02.338Z,1275.8
2023-05-29T06:01:02.345Z,1275.8
2023-05-29T06:02:02.368Z,1291.2
2023-05-29T06:03:02.383Z,1291.2
2023-05-29T06:04:02.468Z,1306.7
2023-05-29T06:05:02.358Z,1322.4
2023-05-29T06:06:02.350Z,1322.4
2023-05-29T06:07:02.362Z,1338.3
2023-05-29T06:08:02.351Z,1338.3
2023-05-29T06:09:03.582Z,1354.4
2023-05-29T06:10:02.386Z,1370.7
2023-05-29T06:11:02.341Z,1370.7
2023-05-29T06:12:02.345Z,1370.7
2023-05-29T06:13:02.379Z,1387.2
2023-05-29T06:14:02.435Z,1387.2
2023-05-29T06:15:02.392Z,1403.9
2023-05-29T06:16:02.434Z,1403.9
2023-05-29T06:17:02.386Z,1420.8
2023-05-29T06:18:02.435Z,1420.8
2023-05-29T06:19:02.388Z,1437.9
2023-05-29T06:20:02.457Z,1437.9
2023-05-29T06:21:02.636Z,1455.2
2023-05-29T06:22:02.365Z,1455.2
2023-05-29T06:23:02.433Z,1472.7
2023-05-29T06:24:02.376Z,1472.7
2023-05-29T06:25:05.133Z,1490.4
2023-05-29T06:26:02.378Z,1490.4
2023-05-29T06:27:02.440Z,1490.4
2023-05-29T06:28:02.356Z,1508.3
2023-05-29T06:29:02.396Z,1508.3
2023-05-29T06:30:02.408Z,1526.4
2023-05-29T06:31:02.399Z,1544.8
2023-05-29T06:32:02.375Z,1544.8
2023-05-29T06:33:02.468Z,1544.8
2023-05-29T06:34:02.370Z,1563.4
2023-05-29T06:35:02.389Z,1582.3
2023-05-29T06:36:03.860Z,1601.3
2023-05-29T06:37:02.364Z,1601.3
2023-05-29T06:38:02.440Z,1620.5
2023-05-29T06:39:02.385Z,1640
2023-05-29T06:40:02.384Z,1659.7
2023-05-29T06:41:02.378Z,1659.7
2023-05-29T06:42:02.387Z,1679.7
2023-05-29T06:43:02.375Z,1679.7
2023-05-29T06:44:02.374Z,1699.9
2023-05-29T06:45:02.440Z,1699.9
2023-05-29T06:46:02.372Z,1720.4
2023-05-29T06:47:02.455Z,1720.4
2023-05-29T06:48:02.540Z,1741
2023-05-29T06:49:03.568Z,1741
2023-05-29T06:50:02.423Z,1762
2023-05-29T06:51:02.382Z,1783.3
2023-05-29T06:52:02.377Z,1804.7
2023-05-29T06:53:02.405Z,1804.7
2023-05-29T06:54:02.416Z,1804.7
2023-05-29T06:55:02.397Z,1804.7
2023-05-29T06:56:02.401Z,1826.4
2023-05-29T06:57:11.168Z,1826.4
2023-05-29T06:58:02.411Z,1826.4
2023-05-29T06:59:02.390Z,1826.4
2023-05-29T07:00:02.480Z,1826.4
2023-05-29T07:01:05.474Z,1826.4
2023-05-29T07:02:02.465Z,1826.4
2023-05-29T07:03:02.476Z,1826.4
2023-05-29T07:04:02.471Z,1848.4
2023-05-29T07:05:02.446Z,1848.4
2023-05-29T07:06:02.413Z,1870.6
2023-05-29T07:07:02.412Z,1870.6
2023-05-29T07:08:02.415Z,1870.6
2023-05-29T07:09:02.404Z,1870.6
2023-05-29T07:10:02.474Z,1870.6
2023-05-29T07:11:02.405Z,1893.1
2023-05-29T07:12:02.404Z,1893.1
2023-05-29T07:13:02.404Z,1893.1
2023-05-29T07:14:02.408Z,1915.9
2023-05-29T07:15:02.430Z,1915.9
2023-05-29T07:16:13.240Z,1938.9
2023-05-29T07:17:02.490Z,1962.2
2023-05-29T07:18:02.433Z,1962.2
2023-05-29T07:19:02.423Z,1985.8
2023-05-29T07:20:02.433Z,2009.8
2023-05-29T07:21:02.619Z,2009.8
2023-05-29T07:22:02.422Z,2034
2023-05-29T07:23:02.411Z,2058.4
2023-05-29T07:24:02.415Z,2058.4
2023-05-29T07:25:02.440Z,2058.4
2023-05-29T07:26:02.447Z,2083.2
2023-05-29T07:27:02.470Z,2108.2
2023-05-29T07:28:14.257Z,2133.6
2023-05-29T07:29:05.074Z,2159.2
2023-05-29T07:30:02.470Z,2159.2
2023-05-29T07:31:02.431Z,2185.2
2023-05-29T07:32:02.484Z,2211.5
2023-05-29T07:33:02.543Z,2211.5
2023-05-29T07:34:03.346Z,2265.1
2023-05-29T07:35:02.466Z,2265.1
2023-05-29T07:36:02.481Z,2265.1
2023-05-29T07:37:02.441Z,2292.3
2023-05-29T07:38:02.430Z,2319.9
2023-05-29T07:39:02.441Z,2347.8
2023-05-29T07:40:02.468Z,2376
2023-05-29T07:41:02.446Z,2433.5
2023-05-29T07:42:02.441Z,2433.5
2023-05-29T07:43:02.431Z,2462.8
2023-05-29T07:44:02.439Z,2492.4
2023-05-29T07:45:02.484Z,2492.4
2023-05-29T07:46:02.531Z,2522.4
2023-05-29T07:47:02.442Z,2552.8
2023-05-29T07:48:02.493Z,2583.5
2023-05-29T07:49:02.433Z,2614.6
2023-05-29T07:50:02.457Z,2614.6
2023-05-29T07:51:00.290Z,2646
2023-05-29T07:52:00.306Z,2646
2023-05-29T07:53:00.295Z,2677.9
2023-05-29T07:54:00.294Z,2677.9
2023-05-29T07:55:00.367Z,2677.9
2023-05-29T07:56:00.307Z,2677.9
2023-05-29T07:57:00.310Z,2710.1
2023-05-29T07:58:00.300Z,2742.6
2023-05-29T07:59:00.310Z,2742.6
2023-05-29T08:00:00.343Z,2775.6
2023-05-29T08:01:00.321Z,2775.6
2023-05-29T08:02:00.302Z,2809
2023-05-29T08:03:00.406Z,2809
2023-05-29T08:04:00.530Z,2809
2023-05-29T08:05:00.429Z,2809
2023-05-29T08:06:00.333Z,2842.8
2023-05-29T08:07:00.309Z,2842.8
2023-05-29T08:08:00.307Z,2877.1
2023-05-29T08:09:00.324Z,2877.1
2023-05-29T08:10:00.322Z,2877.1
2023-05-29T08:11:00.312Z,2877.1
2023-05-29T08:12:01.522Z,2911.7
2023-05-29T08:13:00.313Z,2911.7
2023-05-29T08:14:00.341Z,2946.7
2023-05-29T08:15:00.315Z,2946.7
2023-05-29T08:16:00.406Z,2946.7
2023-05-29T08:17:00.334Z,2946.7
2023-05-29T08:18:00.349Z,2946.7
2023-05-29T08:19:00.329Z,2946.7
2023-05-29T08:20:00.699Z,2946.7
2023-05-29T08:21:00.784Z,2982.2
2023-05-29T08:22:00.333Z,2982.2
2023-05-29T08:23:00.326Z,2982.2
2023-05-29T08:24:00.326Z,2982.2
2023-05-29T08:25:00.356Z,3018
2023-05-29T08:26:00.344Z,2982.2
2023-05-29T08:27:00.336Z,2982.2
2023-05-29T08:28:00.360Z,3018
2023-05-29T08:29:00.341Z,3018
2023-05-29T08:30:00.385Z,3018
2023-05-29T08:31:00.340Z,3018
2023-05-29T08:32:00.501Z,3018
2023-05-29T08:33:00.479Z,3018
2023-05-29T08:34:00.368Z,3018
2023-05-29T08:35:00.338Z,3018
2023-05-29T08:36:00.343Z,3054.3
2023-05-29T08:37:00.341Z,3018
2023-05-29T08:38:00.361Z,3018
2023-05-29T08:39:00.348Z,3018
2023-05-29T08:40:00.350Z,3018
2023-05-29T08:41:00.346Z,3018
2023-05-29T08:42:00.934Z,3054.3
2023-05-29T08:43:00.349Z,3018
2023-05-29T08:44:00.357Z,3018
2023-05-29T08:45:00.347Z,3018
2023-05-29T08:46:00.420Z,3018
2023-05-29T08:47:00.353Z,3018
2023-05-29T08:48:00.432Z,3054.3
2023-05-29T08:49:00.352Z,3054.3
2023-05-29T08:50:00.356Z,3054.3
2023-05-29T08:51:00.366Z,3018
2023-05-29T08:52:00.360Z,3018
2023-05-29T08:53:00.360Z,3018
2023-05-29T08:54:00.421Z,3054.3
2023-05-29T08:55:00.374Z,3054.3
2023-05-29T08:56:00.364Z,3018
2023-05-29T08:57:00.367Z,3054.3
2023-05-29T08:58:00.368Z,3091.1
2023-05-29T08:59:00.498Z,3054.3
2023-05-29T09:00:00.397Z,3054.3
2023-05-29T09:01:00.482Z,3091.1
2023-05-29T09:02:00.441Z,3054.3
2023-05-29T09:03:00.436Z,3054.3
2023-05-29T09:04:00.428Z,3018
2023-05-29T09:05:00.396Z,3054.3
2023-05-29T09:06:00.380Z,3054.3
2023-05-29T09:07:00.382Z,3018
2023-05-29T09:08:00.379Z,3054.3
2023-05-29T09:09:00.407Z,3018
2023-05-29T09:10:00.411Z,3054.3
2023-05-29T09:11:00.379Z,3018
2023-05-29T09:12:00.380Z,3018
2023-05-29T09:13:00.388Z,3018
2023-05-29T09:14:00.385Z,3018
2023-05-29T09:15:00.384Z,3018
2023-05-29T09:16:00.525Z,3018
2023-05-29T09:17:00.393Z,3018
2023-05-29T09:18:00.429Z,3054.3
2023-05-29T09:19:00.394Z,3018
2023-05-29T09:20:00.548Z,3054.3
2023-05-29T09:21:02.353Z,3018
2023-05-29T09:22:00.396Z,3054.3
2023-05-29T09:23:00.392Z,3054.3
2023-05-29T09:24:00.402Z,3018
2023-05-29T09:25:00.420Z,3054.3
2023-05-29T09:26:00.440Z,3054.3
2023-05-29T09:27:00.402Z,3091.1
2023-05-29T09:28:00.419Z,3091.1
2023-05-29T09:29:00.482Z,3091.1
2023-05-29T09:30:00.444Z,3091.1
2023-05-29T09:31:00.421Z,3091.1
2023-05-29T09:32:01.747Z,3091.1
2023-05-29T09:33:00.428Z,3128.2
2023-05-29T09:34:00.433Z,3128.2
2023-05-29T09:35:00.424Z,3128.2
2023-05-29T09:36:00.724Z,3128.2
2023-05-29T09:37:00.415Z,3128.2
2023-05-29T09:38:00.432Z,3128.2
2023-05-29T09:39:13.748Z,3165.8
2023-05-29T09:40:00.468Z,3165.8
2023-05-29T09:41:00.413Z,3128.2
2023-05-29T09:42:00.427Z,3165.8
2023-05-29T09:43:00.415Z,3128.2
2023-05-29T09:44:00.420Z,3128.2
2023-05-29T09:45:00.428Z,3165.8
2023-05-29T09:46:00.487Z,3128.2
2023-05-29T09:47:00.477Z,3165.8
2023-05-29T09:48:00.461Z,3165.8
2023-05-29T09:49:00.426Z,3128.2
2023-05-29T09:50:00.458Z,3165.8
2023-05-29T09:51:01.085Z,3165.8
2023-05-29T09:52:00.443Z,3204.1
2023-05-29T09:53:00.427Z,3204.1
2023-05-29T09:54:00.446Z,3204.1
2023-05-29T09:55:00.421Z,3242.6
2023-05-29T09:56:00.956Z,3242.6
2023-05-29T09:57:00.430Z,3281.6
2023-05-29T09:58:00.493Z,3242.6
2023-05-29T09:59:00.440Z,3242.6
2023-05-29T10:00:00.478Z,3281.6
2023-05-29T10:01:00.442Z,3281.6
2023-05-29T10:02:00.453Z,3281.6
2023-05-29T10:03:00.526Z,3281.6
2023-05-29T10:04:00.494Z,3281.6
2023-05-29T10:05:00.442Z,3321.1
2023-05-29T10:06:00.434Z,3321.1
2023-05-29T10:07:00.438Z,3321.1
2023-05-29T10:08:00.450Z,3321.1
2023-05-29T10:09:00.447Z,3401.4
2023-05-29T10:10:00.458Z,3401.4
2023-05-29T10:11:00.452Z,3401.4
2023-05-29T10:12:00.448Z,3401.4
2023-05-29T10:13:00.454Z,3401.4
2023-05-29T10:14:00.455Z,3442.3
2023-05-29T10:15:00.448Z,3442.3
2023-05-29T10:16:00.475Z,3442.3
2023-05-29T10:17:00.566Z,3483.7
2023-05-29T10:18:00.508Z,3442.3
2023-05-29T10:19:00.463Z,3483.7
2023-05-29T10:20:00.556Z,3525.6
2023-05-29T10:21:00.616Z,3525.6
2023-05-29T10:22:00.467Z,3525.6
2023-05-29T10:23:00.481Z,3525.6
2023-05-29T10:24:00.465Z,3568
2023-05-29T10:25:00.466Z,3568
2023-05-29T10:26:00.467Z,3568
2023-05-29T10:27:00.466Z,3568
2023-05-29T10:28:00.477Z,3568
2023-05-29T10:29:00.470Z,3568
2023-05-29T10:30:02.573Z,3611.1
2023-05-29T10:31:00.469Z,3611.1
2023-05-29T10:32:00.533Z,3611.1
2023-05-29T10:33:00.535Z,3654.5
2023-05-29T10:34:00.499Z,3654.5
2023-05-29T10:35:00.478Z,3654.5
2023-05-29T10:36:00.481Z,3654.5
2023-05-29T10:37:00.475Z,3742.9
2023-05-29T10:38:00.502Z,3654.5
2023-05-29T10:39:00.503Z,3698.5
2023-05-29T10:40:00.517Z,3742.9
2023-05-29T10:41:00.489Z,3742.9
2023-05-29T10:42:00.503Z,3742.9
2023-05-29T10:43:00.489Z,3788
2023-05-29T10:44:00.484Z,3742.9
2023-05-29T10:45:00.504Z,3788
2023-05-29T10:46:00.993Z,3788
2023-05-29T10:47:00.504Z,3833.5
2023-05-29T10:48:00.538Z,3833.5
2023-05-29T10:49:00.492Z,3833.5
2023-05-29T10:50:00.511Z,3788
2023-05-29T10:51:00.513Z,3788
2023-05-29T10:52:00.500Z,3879.6
2023-05-29T10:53:00.501Z,3833.5
2023-05-29T10:54:00.493Z,3833.5
2023-05-29T10:55:00.490Z,3879.6
2023-05-29T10:56:00.497Z,3879.6
2023-05-29T10:57:00.499Z,3879.6
2023-05-29T10:58:00.496Z,3926.3
2023-05-29T10:59:00.495Z,3926.3
2023-05-29T11:00:00.506Z,3926.3
2023-05-29T11:01:00.543Z,3926.3
2023-05-29T11:02:00.569Z,3926.3
2023-05-29T11:03:00.585Z,3973.5
2023-05-29T11:04:00.563Z,3973.5
2023-05-29T11:05:00.513Z,3973.5
2023-05-29T11:06:00.530Z,3973.5
2023-05-29T11:07:00.525Z,3926.3
2023-05-29T11:08:00.534Z,3926.3
2023-05-29T11:09:00.528Z,3973.5
2023-05-29T11:11:00.555Z,4021.3
2023-05-29T11:12:00.521Z,3973.5
2023-05-29T11:13:00.531Z,3973.5
2023-05-29T11:14:00.509Z,4021.3
2023-05-29T11:15:00.523Z,3973.5
2023-05-29T11:16:00.523Z,3973.5
2023-05-29T11:17:00.595Z,4021.3
2023-05-29T11:18:00.606Z,4021.3
2023-05-29T11:19:01.080Z,4021.3
2023-05-29T11:20:00.571Z,4021.3
2023-05-29T11:21:00.540Z,4021.3
2023-05-29T11:22:00.520Z,4021.3
2023-05-29T11:23:00.546Z,4021.3
2023-05-29T11:24:00.521Z,4021.3
2023-05-29T11:25:00.544Z,4021.3
2023-05-29T11:26:00.530Z,4021.3
2023-05-29T11:27:00.584Z,4021.3
2023-05-29T11:28:00.542Z,4021.3
2023-05-29T11:29:00.556Z,4069.8
2023-05-29T11:30:00.565Z,4069.8
2023-05-29T11:31:00.531Z,4069.8
2023-05-29T11:32:02.276Z,4069.8
2023-05-29T11:33:00.571Z,4069.8
2023-05-29T11:34:00.615Z,4021.3
2023-05-29T11:35:00.543Z,4118.8
2023-05-29T11:36:00.530Z,4118.8
2023-05-29T11:37:00.528Z,4069.8
2023-05-29T11:38:02.256Z,4118.8
2023-05-29T11:39:00.554Z,4069.8
2023-05-29T11:40:00.544Z,4118.8
2023-05-29T11:41:00.543Z,4118.8
2023-05-29T11:42:00.538Z,4118.8
2023-05-29T11:43:00.534Z,4168.3
2023-05-29T11:44:00.541Z,4168.3
2023-05-29T11:45:00.551Z,4168.3
2023-05-29T11:46:00.537Z,4168.3
2023-05-29T11:47:00.561Z,4168.3
2023-05-29T11:48:00.651Z,4118.8
2023-05-29T11:49:00.556Z,4168.3
2023-05-29T11:50:00.594Z,4168.3
2023-05-29T11:51:04.547Z,4168.3
2023-05-29T11:52:14.416Z,4168.3
2023-05-29T11:53:00.548Z,4168.3
2023-05-29T11:54:00.571Z,4168.3
2023-05-29T11:55:00.545Z,4168.3
2023-05-29T11:56:00.557Z,4168.3
2023-05-29T11:57:00.556Z,4168.3
2023-05-29T11:58:00.581Z,4218.4
2023-05-29T11:59:00.648Z,4168.3
2023-05-29T12:00:00.554Z,4218.4
2023-05-29T12:01:00.552Z,4320.5
2023-05-29T12:02:00.554Z,4218.4
2023-05-29T12:03:00.581Z,4269.1
2023-05-29T12:04:00.597Z,4269.1
2023-05-29T12:05:00.650Z,4269.1
2023-05-29T12:06:01.181Z,4218.4
2023-05-29T12:07:00.563Z,4218.4
2023-05-29T12:08:00.575Z,4269.1
2023-05-29T12:09:00.582Z,4218.4
2023-05-29T12:10:00.579Z,4218.4
2023-05-29T12:11:00.577Z,4218.4
2023-05-29T12:12:00.565Z,4218.4
2023-05-29T12:13:00.601Z,4269.1
2023-05-29T12:14:00.568Z,4218.4
2023-05-29T12:15:00.575Z,4218.4
2023-05-29T12:16:00.575Z,4218.4
2023-05-29T12:17:00.614Z,4218.4
2023-05-29T12:18:00.594Z,4218.4
2023-05-29T12:19:00.571Z,4269.1
2023-05-29T12:20:00.710Z,4269.1
2023-05-29T12:21:00.637Z,4320.5
2023-05-29T12:22:00.649Z,4218.4
2023-05-29T12:23:00.578Z,4218.4
2023-05-29T12:25:00.582Z,4269.1
2023-05-29T12:26:00.588Z,4218.4
2023-05-29T12:27:00.588Z,4320.5
2023-05-29T12:28:00.607Z,4269.1
2023-05-29T12:29:00.599Z,4269.1
2023-05-29T12:30:00.724Z,4269.1
2023-05-29T12:31:00.590Z,4269.1
2023-05-29T12:32:00.713Z,4269.1
2023-05-29T12:33:00.748Z,4269.1
2023-05-29T12:34:00.611Z,4269.1
2023-05-29T12:35:00.594Z,4269.1
2023-05-29T12:36:00.610Z,4269.1
2023-05-29T12:37:00.587Z,4269.1
2023-05-29T12:38:00.688Z,4269.1
2023-05-29T12:39:00.601Z,4320.5
2023-05-29T12:40:00.602Z,4320.5
2023-05-29T12:41:00.593Z,4320.5
2023-05-29T12:42:00.597Z,4320.5
2023-05-29T12:43:00.648Z,4320.5
2023-05-29T12:44:00.602Z,4269.1
2023-05-29T12:45:00.606Z,4320.5
2023-05-29T12:46:00.688Z,4320.5
2023-05-29T12:47:00.596Z,4372.4
2023-05-29T12:48:00.604Z,4320.5
2023-05-29T12:49:00.601Z,4320.5
2023-05-29T12:50:00.615Z,4320.5
2023-05-29T12:51:00.606Z,4372.4
2023-05-29T12:52:00.609Z,4372.4
2023-05-29T12:53:00.614Z,4372.4
2023-05-29T12:54:00.640Z,4372.4
2023-05-29T12:55:00.645Z,4372.4
2023-05-29T12:56:02.744Z,4372.4
2023-05-29T12:57:00.612Z,4372.4
2023-05-29T12:58:00.621Z,4372.4